createdAt,value
2018-11-14T00:01:09.193Z,72.43
2018-11-14T00:03:38.607Z,79.23
2018-11-14T00:06:09.233Z,79.63
2018-11-14T00:08:38.406Z,74.67
2018-11-14T00:11:07.802Z,78.77
2018-11-14T00:13:37.116Z,82.47
2018-11-14T00:16:06.355Z,84.80
2018-11-14T00:18:35.525Z,83.50
2018-11-14T00:21:04.685Z,89.97
2018-11-14T00:23:33.882Z,97.37
2018-11-14T00:26:03.118Z,98.40
2018-11-14T00:28:32.294Z,101.97
2018-11-14T00:31:01.717Z,99.40
2018-11-14T00:33:30.802Z,96.70
2018-11-14T00:36:00.433Z,98.27
2018-11-14T00:38:29.413Z,101.47
2018-11-14T00:40:58.474Z,90.13
2018-11-14T00:43:27.365Z,88.83
2018-11-14T00:45:56.401Z,85.80
2018-11-14T00:48:25.596Z,94.97
2018-11-14T00:50:54.716Z,95.53
2018-11-14T00:53:23.757Z,100.37
2018-11-14T00:55:53.516Z,96.93
2018-11-14T00:58:26.872Z,104.40
2018-11-14T01:00:57.591Z,98.63
2018-11-14T01:03:27.196Z,104.83
2018-11-14T01:05:56.951Z,96.07
2018-11-14T01:08:25.945Z,98.40
2018-11-14T01:10:54.998Z,108.27
2018-11-14T01:13:24.185Z,103.93
2018-11-14T01:15:53.745Z,100.30
2018-11-14T01:18:22.797Z,98.47
2018-11-14T01:20:51.822Z,105.50
2018-11-14T01:23:21.329Z,93.87
2018-11-14T01:25:50.794Z,95.07
2018-11-14T01:28:20.233Z,96.00
2018-11-14T01:30:49.306Z,91.33
2018-11-14T01:33:18.690Z,90.70
2018-11-14T01:35:48.612Z,85.63
2018-11-14T01:38:17.605Z,87.00
2018-11-14T01:40:46.598Z,85.30
2018-11-14T01:43:15.576Z,88.33
2018-11-14T01:45:44.501Z,83.47
2018-11-14T01:48:13.529Z,85.33
2018-11-14T01:50:42.493Z,80.65
2018-11-14T01:53:11.509Z,76.37
2018-11-14T01:55:40.614Z,77.73
2018-11-14T01:58:10.108Z,78.87
2018-11-14T02:00:39.100Z,77.40
2018-11-14T02:03:08.348Z,72.07
2018-11-14T02:05:38.322Z,70.60
2018-11-14T02:08:07.806Z,68.30
2018-11-14T02:10:36.915Z,67.87
2018-11-14T02:13:06.285Z,68.67
2018-11-14T02:15:36.128Z,64.73
2018-11-14T02:18:05.497Z,66.07
2018-11-14T02:20:35.343Z,63.73
2018-11-14T02:23:04.566Z,68.23
2018-11-14T02:25:34.213Z,64.17
2018-11-14T02:28:03.750Z,61.63
2018-11-14T02:30:32.814Z,64.13
2018-11-14T02:33:02.074Z,62.30
2018-11-14T02:35:31.150Z,61.60
2018-11-14T02:38:00.502Z,56.90
2018-11-14T02:40:29.711Z,56.27
2018-11-14T02:42:59.017Z,62.47
2018-11-14T02:45:28.118Z,60.47
2018-11-14T02:47:57.070Z,60.23
2018-11-14T02:50:25.985Z,64.83
2018-11-14T02:52:54.901Z,68.87
2018-11-14T02:55:24.017Z,64.87
2018-11-14T02:57:53.015Z,63.00
2018-11-14T03:00:22.917Z,61.10
2018-11-14T03:02:52.718Z,63.73
2018-11-14T03:05:21.858Z,68.53
2018-11-14T03:07:52.051Z,58.13
2018-11-14T03:10:22.105Z,59.93
2018-11-14T03:12:52.386Z,54.23
2018-11-14T03:15:23.523Z,64.07
2018-11-14T03:17:52.821Z,60.33
2018-11-14T03:20:22.517Z,52.90
2018-11-14T03:22:51.625Z,58.77
2018-11-14T03:25:21.146Z,59.23
2018-11-14T03:27:50.524Z,63.23
2018-11-14T03:30:20.037Z,57.43
2018-11-14T03:32:49.031Z,57.77
2018-11-14T03:35:18.318Z,60.30
2018-11-14T03:37:47.457Z,61.60
2018-11-14T03:40:17.401Z,58.80
2018-11-14T03:42:47.373Z,67.87
2018-11-14T03:45:16.523Z,65.10
2018-11-14T03:47:45.785Z,62.40
2018-11-14T03:50:15.261Z,59.13
2018-11-14T03:52:44.872Z,64.00
2018-11-14T03:55:14.180Z,60.77
2018-11-14T03:57:43.284Z,65.03
2018-11-14T04:00:14.477Z,65.90
2018-11-14T04:02:45.066Z,66.80
2018-11-14T04:05:14.276Z,71.70
2018-11-14T04:07:44.358Z,69.77
2018-11-14T04:10:14.057Z,64.53
2018-11-14T04:12:43.493Z,72.82
2018-11-14T04:15:14.099Z,74.00
2018-11-14T04:17:43.260Z,73.53
2018-11-14T04:20:16.030Z,74.63
2018-11-14T04:22:45.724Z,68.87
2018-11-14T04:25:16.366Z,75.87
2018-11-14T04:27:46.436Z,66.50
2018-11-14T04:30:17.339Z,72.80
2018-11-14T04:32:46.390Z,72.37
2018-11-14T04:35:16.469Z,67.93
2018-11-14T04:37:46.409Z,69.23
2018-11-14T04:40:18.270Z,67.33
2018-11-14T04:42:47.256Z,65.07
2018-11-14T04:45:18.561Z,73.37
2018-11-14T04:47:47.841Z,66.27
2018-11-14T04:50:18.828Z,62.27
2018-11-14T04:52:49.665Z,65.87
2018-11-14T04:55:20.194Z,65.77
2018-11-14T04:57:49.814Z,68.10
2018-11-14T05:00:23.468Z,64.00
2018-11-14T05:02:53.900Z,67.47
2018-11-14T05:05:25.443Z,68.00
2018-11-14T05:07:57.258Z,65.77
2018-11-14T05:10:27.039Z,64.07
2018-11-14T05:12:56.903Z,64.87
2018-11-14T05:15:26.908Z,60.23
2018-11-14T05:17:56.570Z,54.83
2018-11-14T05:20:26.321Z,52.07
2018-11-14T05:22:55.617Z,54.47
2018-11-14T05:25:25.082Z,54.47
2018-11-14T05:27:54.226Z,56.50
2018-11-14T05:30:24.069Z,49.80
2018-11-14T05:32:53.739Z,53.57
2018-11-14T05:35:22.817Z,67.93
2018-11-14T05:37:51.874Z,58.60
2018-11-14T05:40:21.988Z,61.60
2018-11-14T05:42:52.545Z,54.20
2018-11-14T05:45:24.515Z,55.87
2018-11-14T05:47:53.709Z,55.37
2018-11-14T05:50:23.863Z,60.00
2018-11-14T05:52:52.870Z,52.60
2018-11-14T05:55:22.471Z,54.17
2018-11-14T05:57:51.525Z,56.43
2018-11-14T06:00:24.381Z,49.20
2018-11-14T06:02:54.250Z,46.90
2018-11-14T06:05:23.641Z,52.17
2018-11-14T06:07:52.685Z,50.70
2018-11-14T06:10:22.154Z,47.70
2018-11-14T06:12:51.241Z,46.43
2018-11-14T06:15:21.456Z,47.60
2018-11-14T06:17:51.622Z,45.97
2018-11-14T06:20:21.744Z,45.20
2018-11-14T06:22:51.551Z,53.87
2018-11-14T06:25:28.109Z,45.07
2018-11-14T06:27:57.821Z,48.93
2018-11-14T06:30:27.090Z,48.70
2018-11-14T06:32:56.561Z,50.73
2018-11-14T06:35:26.137Z,46.33
2018-11-14T06:37:56.241Z,41.00
2018-11-14T06:40:25.733Z,43.93
2018-11-14T06:42:54.849Z,40.30
2018-11-14T06:45:25.185Z,41.37
2018-11-14T06:47:55.581Z,40.10
2018-11-14T06:50:24.553Z,36.83
2018-11-14T06:52:54.976Z,39.57
2018-11-14T06:55:24.610Z,37.57
2018-11-14T06:57:53.834Z,39.58
2018-11-14T07:00:25.290Z,37.60
2018-11-14T07:02:54.853Z,35.70
2018-11-14T07:05:24.698Z,37.33
2018-11-14T07:07:53.680Z,39.93
2018-11-14T07:10:23.870Z,34.10
2018-11-14T07:12:53.203Z,43.93
2018-11-14T07:15:23.857Z,42.60
2018-11-14T07:17:53.887Z,38.65
2018-11-14T07:20:24.915Z,35.70
2018-11-14T07:22:54.089Z,36.83
2018-11-14T07:25:23.118Z,37.67
2018-11-14T07:27:52.426Z,43.33
2018-11-14T07:30:22.603Z,32.67
2018-11-14T07:32:54.488Z,32.07
2018-11-14T07:35:23.881Z,30.87
2018-11-14T07:38:59.765Z,34.27
2018-11-14T07:41:32.810Z,29.53
2018-11-14T07:44:03.538Z,35.90
2018-11-14T07:46:33.404Z,33.40
2018-11-14T07:49:02.909Z,36.93
2018-11-14T07:51:32.245Z,33.33
2018-11-14T07:54:01.273Z,37.03
2018-11-14T07:56:30.759Z,32.20
2018-11-14T07:59:00.229Z,35.93
2018-11-14T08:01:29.466Z,34.80
2018-11-14T08:03:58.533Z,37.57
2018-11-14T08:06:27.722Z,36.03
2018-11-14T08:08:56.754Z,38.20
2018-11-14T08:11:26.256Z,42.07
2018-11-14T08:13:55.455Z,39.73
2018-11-14T08:16:24.965Z,39.53
2018-11-14T08:18:53.998Z,41.13
2018-11-14T08:21:23.005Z,39.67
2018-11-14T08:23:52.754Z,43.30
2018-11-14T08:26:22.669Z,39.57
2018-11-14T08:28:52.081Z,41.60
2018-11-14T08:31:21.043Z,42.10
2018-11-14T08:33:50.226Z,47.93
2018-11-14T08:36:21.024Z,39.13
2018-11-14T08:38:51.008Z,42.80
2018-11-14T08:41:20.094Z,38.10
2018-11-14T08:43:49.070Z,40.00
2018-11-14T08:46:18.121Z,44.23
2018-11-14T08:48:47.386Z,47.95
2018-11-14T08:51:17.223Z,47.40
2018-11-14T08:53:46.507Z,46.57
2018-11-14T08:56:15.676Z,42.37
2018-11-14T08:58:45.036Z,45.97
2018-11-14T09:01:14.407Z,42.97
2018-11-14T09:03:43.794Z,47.30
2018-11-14T09:06:13.358Z,44.60
2018-11-14T09:08:42.546Z,40.20
2018-11-14T09:11:11.794Z,46.70
2018-11-14T09:13:40.806Z,50.53
2018-11-14T09:16:10.514Z,46.37
2018-11-14T09:18:39.711Z,49.47
2018-11-14T09:21:09.227Z,47.93
2018-11-14T09:23:38.525Z,45.73
2018-11-14T09:26:07.494Z,50.47
2018-11-14T09:28:37.014Z,46.03
2018-11-14T09:31:06.621Z,44.53
2018-11-14T09:33:37.670Z,43.17
2018-11-14T09:36:06.869Z,50.00
2018-11-14T09:38:35.850Z,48.73
2018-11-14T09:41:05.217Z,45.77
2018-11-14T09:43:34.158Z,43.97
2018-11-14T09:46:03.766Z,44.70
2018-11-14T09:48:33.097Z,39.73
2018-11-14T09:51:02.557Z,30.63
2018-11-14T09:53:32.066Z,35.10
2018-11-14T09:56:01.471Z,30.37
2018-11-14T09:58:30.554Z,31.70
2018-11-14T10:00:59.677Z,24.35
2018-11-14T10:03:29.412Z,30.63
2018-11-14T10:05:58.985Z,27.03
2018-11-14T10:08:28.064Z,28.23
2018-11-14T10:10:57.336Z,28.40
2018-11-14T10:13:26.333Z,31.50
2018-11-14T10:15:55.454Z,33.87
2018-11-14T10:18:24.705Z,34.83
2018-11-14T10:20:53.660Z,35.63
2018-11-14T10:23:22.641Z,28.67
2018-11-14T10:25:52.153Z,29.70
2018-11-14T10:28:21.202Z,33.50
2018-11-14T10:30:50.317Z,27.30
2018-11-14T10:33:20.049Z,28.53
2018-11-14T10:35:49.658Z,24.83
2018-11-14T10:38:18.961Z,23.43
2018-11-14T10:40:48.013Z,21.83
2018-11-14T10:43:17.034Z,22.17
2018-11-14T10:45:46.552Z,20.27
2018-11-14T10:48:15.701Z,17.93
2018-11-14T10:50:45.512Z,24.80
2018-11-14T10:53:14.757Z,18.87
2018-11-14T10:55:44.173Z,24.07
2018-11-14T10:58:13.714Z,21.47
2018-11-14T11:00:48.917Z,19.70
2018-11-14T11:03:23.585Z,14.27
2018-11-14T11:05:58.891Z,22.33
2018-11-14T11:09:33.318Z,18.73
2018-11-14T11:12:08.139Z,12.53
2018-11-14T11:14:41.934Z,11.03
2018-11-14T11:17:16.881Z,7.77
2018-11-14T11:19:45.865Z,14.37
2018-11-14T11:22:14.940Z,9.23
2018-11-14T11:24:44.185Z,10.10
2018-11-14T11:27:13.182Z,10.57
2018-11-14T11:29:42.348Z,9.83
2018-11-14T11:32:11.481Z,10.37
2018-11-14T11:34:40.751Z,11.40
2018-11-14T11:37:09.781Z,11.87
2018-11-14T11:39:39.350Z,12.83
2018-11-14T11:42:08.658Z,11.30
2018-11-14T11:44:37.790Z,12.77
2018-11-14T11:47:07.557Z,12.50
2018-11-14T11:49:36.858Z,11.97
2018-11-14T11:52:06.167Z,12.60
2018-11-14T11:54:35.122Z,11.60
2018-11-14T11:57:04.233Z,8.30
2018-11-14T11:59:33.476Z,10.47
2018-11-14T12:02:02.687Z,8.47
2018-11-14T12:04:31.770Z,8.97
2018-11-14T12:07:01.018Z,14.37
2018-11-14T12:09:30.030Z,11.17
2018-11-14T12:11:59.402Z,9.87
2018-11-14T12:14:28.750Z,9.57
2018-11-14T12:16:58.241Z,10.23
2018-11-14T12:19:27.317Z,9.50
2018-11-14T12:21:56.826Z,9.80
2018-11-14T12:24:26.026Z,11.07
2018-11-14T12:26:55.199Z,10.10
2018-11-14T12:29:23.856Z,9.17
2018-11-14T12:31:52.909Z,12.93
2018-11-14T12:34:22.233Z,7.23
2018-11-14T12:36:51.525Z,11.67
2018-11-14T12:39:20.597Z,7.50
2018-11-14T12:41:50.226Z,8.45
2018-11-14T12:44:20.120Z,7.78
2018-11-14T12:46:49.429Z,7.58
2018-11-14T12:49:19.269Z,10.10
2018-11-14T12:51:48.632Z,8.68
2018-11-14T12:54:17.741Z,11.20
2018-11-14T12:56:46.929Z,7.62
2018-11-14T12:59:16.097Z,12.10
2018-11-14T13:01:45.503Z,9.98
2018-11-14T13:04:14.601Z,11.93
2018-11-14T13:06:44.130Z,9.00
2018-11-14T13:09:13.533Z,8.65
2018-11-14T13:11:42.506Z,11.80
2018-11-14T13:14:11.814Z,15.45
2018-11-14T13:16:41.147Z,12.37
2018-11-14T13:19:10.158Z,14.20
2018-11-14T13:21:39.133Z,14.80
2018-11-14T13:24:08.398Z,9.48
2018-11-14T13:26:38.232Z,14.85
2018-11-14T13:29:08.484Z,14.28
2018-11-14T13:31:37.910Z,9.45
2018-11-14T13:34:07.254Z,10.90
2018-11-14T13:36:36.503Z,13.05
2018-11-14T13:39:07.754Z,11.90
2018-11-14T13:41:36.957Z,8.18
2018-11-14T13:44:10.559Z,12.68
2018-11-14T13:46:41.425Z,37.65
2018-11-14T13:49:10.809Z,8.55
2018-11-14T13:51:41.877Z,16.48
2018-11-14T13:54:11.070Z,11.15
2018-11-14T13:56:41.042Z,15.40
2018-11-14T13:59:11.552Z,10.53
2018-11-14T14:01:41.758Z,12.70
2018-11-14T14:04:12.286Z,11.63
2018-11-14T14:06:42.706Z,15.47
2018-11-14T14:09:13.662Z,12.73
2018-11-14T14:11:44.541Z,10.17
2018-11-14T14:14:18.082Z,11.93
2018-11-14T14:16:47.269Z,8.43
2018-11-14T14:19:17.187Z,8.27
2018-11-14T14:21:46.904Z,9.97
2018-11-14T14:24:15.903Z,11.83
2018-11-14T14:26:45.395Z,13.40
2018-11-14T14:29:14.838Z,9.03
2018-11-14T14:31:44.198Z,7.73
2018-11-14T14:34:13.422Z,9.47
2018-11-14T14:36:42.642Z,7.17
2018-11-14T14:39:13.060Z,7.77
2018-11-14T14:41:43.143Z,9.67
2018-11-14T14:44:12.341Z,12.00
2018-11-14T14:46:42.421Z,9.60
2018-11-14T14:49:11.926Z,8.13
2018-11-14T14:51:41.359Z,9.13
2018-11-14T14:54:11.036Z,8.67
2018-11-14T14:56:41.308Z,8.93
2018-11-14T14:59:11.412Z,6.50
2018-11-14T15:01:41.854Z,6.07
2018-11-14T15:04:12.201Z,11.50
2018-11-14T15:06:42.224Z,9.87
2018-11-14T15:09:15.907Z,10.83
2018-11-14T15:11:47.062Z,8.50
2018-11-14T15:14:16.790Z,18.23
2018-11-14T15:16:46.222Z,17.43
2018-11-14T15:19:15.738Z,16.73
2018-11-14T15:21:45.621Z,16.10
2018-11-14T15:24:15.206Z,20.80
2018-11-14T15:26:45.070Z,24.87
2018-11-14T15:29:17.234Z,24.40
2018-11-14T15:31:46.766Z,24.63
2018-11-14T15:34:16.730Z,27.13
2018-11-14T15:36:46.566Z,24.90
2018-11-14T15:39:16.241Z,28.60
2018-11-14T15:41:45.826Z,28.20
2018-11-14T15:44:15.837Z,31.50
2018-11-14T15:46:45.087Z,31.10
2018-11-14T15:49:15.147Z,34.83
2018-11-14T15:51:44.230Z,28.13
2018-11-14T15:54:14.382Z,29.70
2018-11-14T15:56:44.218Z,33.20
2018-11-14T15:59:14.807Z,34.00
2018-11-14T16:01:43.802Z,27.60
2018-11-14T16:04:13.341Z,27.57
2018-11-14T16:06:43.113Z,31.00
2018-11-14T16:09:13.894Z,30.60
2018-11-14T16:11:42.744Z,37.00
2018-11-14T16:14:12.189Z,31.97
2018-11-14T16:16:42.177Z,33.00
2018-11-14T16:19:10.989Z,32.67
2018-11-14T16:21:39.929Z,35.15
2018-11-14T16:24:09.343Z,35.67
2018-11-14T16:26:38.529Z,41.87
2018-11-14T16:29:08.301Z,36.83
2018-11-14T16:31:37.506Z,38.80
2018-11-14T16:34:06.850Z,35.50
2018-11-14T16:36:35.905Z,40.63
2018-11-14T16:39:07.086Z,35.77
2018-11-14T16:41:35.775Z,39.27
2018-11-14T16:44:04.829Z,39.97
2018-11-14T16:46:34.469Z,41.93
2018-11-14T16:49:03.425Z,42.43
2018-11-14T16:51:32.454Z,41.47
2018-11-14T16:54:01.866Z,43.20
2018-11-14T16:56:33.732Z,47.45
2018-11-14T16:59:06.392Z,44.30
2018-11-14T17:01:35.377Z,46.77
2018-11-14T17:04:04.637Z,44.07
2018-11-14T17:06:33.369Z,46.63
2018-11-14T17:09:02.589Z,44.93
2018-11-14T17:11:31.578Z,44.53
2018-11-14T17:14:00.301Z,40.13
2018-11-14T17:16:29.561Z,45.98
2018-11-14T17:18:58.328Z,42.47
2018-11-14T17:21:27.857Z,45.93
2018-11-14T17:23:56.737Z,41.67
2018-11-14T17:26:25.629Z,46.90
2018-11-14T17:28:54.354Z,52.80
2018-11-14T17:31:23.100Z,52.13
2018-11-14T17:33:52.027Z,49.33
2018-11-14T17:36:21.509Z,52.10
2018-11-14T17:38:50.500Z,43.80
2018-11-14T17:41:19.276Z,45.27
2018-11-14T17:43:48.213Z,44.77
2018-11-14T17:46:17.075Z,45.93
2018-11-14T17:48:46.136Z,44.60
2018-11-14T17:51:15.465Z,45.65
2018-11-14T17:53:44.458Z,41.43
2018-11-14T17:56:13.529Z,44.77
2018-11-14T17:58:42.751Z,47.20
2018-11-14T18:01:11.634Z,41.63
2018-11-14T18:03:40.208Z,38.73
2018-11-14T18:06:08.854Z,41.57
2018-11-14T18:08:38.109Z,49.50
2018-11-14T18:11:07.701Z,42.37
2018-11-14T18:13:36.465Z,44.58
2018-11-14T18:16:05.517Z,45.27
2018-11-14T18:18:34.581Z,46.67
2018-11-14T18:21:03.997Z,47.77
2018-11-14T18:23:32.879Z,43.67
2018-11-14T18:26:01.983Z,45.30
2018-11-14T18:28:30.975Z,45.43
2018-11-14T18:30:59.968Z,45.90
2018-11-14T18:33:29.271Z,43.73
2018-11-14T18:35:58.374Z,43.13
2018-11-14T18:38:27.334Z,46.73
2018-11-14T18:40:56.246Z,44.67
2018-11-14T18:43:25.547Z,47.13
2018-11-14T18:45:54.354Z,44.20
2018-11-14T18:48:22.968Z,47.77
2018-11-14T18:50:52.220Z,47.97
2018-11-14T18:53:21.525Z,47.43
2018-11-14T18:55:50.821Z,46.13
2018-11-14T18:58:19.624Z,45.87
2018-11-14T19:00:48.705Z,43.37
2018-11-14T19:03:17.552Z,43.60
2018-11-14T19:05:46.268Z,44.43
2018-11-14T19:08:15.273Z,44.00
2018-11-14T19:10:43.949Z,43.70
2018-11-14T19:13:13.045Z,42.17
2018-11-14T19:15:41.942Z,39.67
2018-11-14T19:18:13.276Z,42.97
2018-11-14T19:20:42.097Z,40.57
2018-11-14T19:23:10.773Z,48.90
2018-11-14T19:25:39.392Z,60.77
2018-11-14T19:28:08.848Z,55.40
2018-11-14T19:30:38.472Z,56.27
2018-11-14T19:33:08.304Z,65.23
2018-11-14T19:35:37.512Z,61.13
2018-11-14T19:38:06.773Z,56.50
2018-11-14T19:40:37.652Z,69.07
2018-11-14T19:43:07.996Z,80.97
2018-11-14T19:45:37.491Z,60.50
2018-11-14T19:48:06.557Z,54.97
2018-11-14T19:50:35.327Z,49.53
2018-11-14T19:53:04.733Z,55.10
2018-11-14T19:55:34.670Z,51.33
2018-11-14T19:58:04.439Z,50.40
2018-11-14T20:00:36.592Z,49.43
2018-11-14T20:03:05.660Z,49.77
2018-11-14T20:05:35.085Z,47.70
2018-11-14T20:08:03.669Z,49.97
2018-11-14T20:10:33.428Z,37.50
2018-11-14T20:13:03.181Z,36.93
2018-11-14T20:15:34.285Z,41.77
2018-11-14T20:18:03.041Z,39.53
2018-11-14T20:20:33.333Z,41.00
2018-11-14T20:23:03.415Z,37.57
2018-11-14T20:25:32.681Z,42.50
2018-11-14T20:28:01.895Z,35.00
2018-11-14T20:30:34.357Z,39.73
2018-11-14T20:33:05.185Z,36.93
2018-11-14T20:35:34.197Z,36.87
2018-11-14T20:38:02.948Z,41.80
2018-11-14T20:40:32.182Z,38.97
2018-11-14T20:43:01.890Z,40.23
2018-11-14T20:45:32.437Z,45.10
2018-11-14T20:48:03.601Z,41.80
2018-11-14T20:50:33.377Z,40.17
2018-11-14T20:53:03.733Z,42.37
2018-11-14T20:55:36.881Z,39.90
2018-11-14T20:58:06.131Z,40.90
2018-11-14T21:00:36.157Z,38.50
2018-11-14T21:03:05.655Z,43.40
2018-11-14T21:05:35.668Z,37.10
2018-11-14T21:08:05.433Z,45.27
2018-11-14T21:10:35.191Z,42.17
2018-11-14T21:13:04.981Z,42.10
2018-11-14T21:15:35.308Z,43.33
2018-11-14T21:18:04.462Z,46.90
2018-11-14T21:20:33.405Z,43.00
2018-11-14T21:23:02.450Z,43.20
2018-11-14T21:25:31.201Z,41.70
2018-11-14T21:28:00.369Z,42.37
2018-11-14T21:30:30.247Z,43.87
2018-11-14T21:32:59.132Z,47.13
2018-11-14T21:35:30.377Z,54.40
2018-11-14T21:38:00.504Z,56.30
2018-11-14T21:40:29.527Z,47.63
2018-11-14T21:42:58.618Z,46.83
2018-11-14T21:45:29.155Z,46.53
2018-11-14T21:48:03.465Z,41.90
2018-11-14T21:50:33.466Z,38.00
2018-11-14T21:53:03.313Z,45.57
2018-11-14T21:55:32.796Z,40.33
2018-11-14T21:58:02.288Z,39.13
2018-11-14T22:00:33.653Z,40.97
2018-11-14T22:03:04.399Z,39.97
2018-11-14T22:05:34.050Z,35.23
2018-11-14T22:08:03.826Z,38.28
2018-11-14T22:10:33.349Z,37.30
2018-11-14T22:13:03.563Z,38.27
2018-11-14T22:15:33.241Z,37.57
2018-11-14T22:18:03.000Z,36.47
2018-11-14T22:20:32.241Z,36.07
2018-11-14T22:23:01.960Z,40.10
2018-11-14T22:25:31.045Z,39.17
2018-11-14T22:28:00.735Z,39.87
2018-11-14T22:30:31.014Z,33.67
2018-11-14T22:33:00.215Z,34.53
2018-11-14T22:35:30.259Z,36.03
2018-11-14T22:37:59.597Z,32.57
2018-11-14T22:40:29.847Z,35.13
2018-11-14T22:42:59.833Z,36.17
2018-11-14T22:45:30.802Z,31.00
2018-11-14T22:48:00.881Z,35.40
2018-11-14T22:50:34.077Z,32.10
2018-11-14T22:53:03.246Z,36.30
2018-11-14T22:55:32.242Z,28.50
2018-11-14T22:58:01.678Z,33.13
2018-11-14T23:00:37.541Z,29.57
2018-11-14T23:03:07.038Z,30.83
2018-11-14T23:05:36.198Z,32.23
2018-11-14T23:08:05.556Z,30.80
2018-11-14T23:10:34.769Z,26.00
2018-11-14T23:13:04.042Z,31.17
2018-11-14T23:15:33.141Z,25.97
2018-11-14T23:18:02.529Z,28.63
2018-11-14T23:20:31.829Z,26.40
2018-11-14T23:23:01.000Z,33.10
2018-11-14T23:25:31.048Z,27.17
2018-11-14T23:28:00.458Z,28.27
2018-11-14T23:30:29.446Z,27.97
2018-11-14T23:32:58.721Z,26.63
2018-11-14T23:35:31.418Z,32.60
2018-11-14T23:38:02.601Z,27.13
2018-11-14T23:40:32.070Z,26.20
2018-11-14T23:43:01.323Z,27.53
2018-11-14T23:45:31.224Z,31.20
2018-11-14T23:48:00.478Z,27.03
2018-11-14T23:50:30.806Z,28.80
2018-11-14T23:53:00.786Z,25.30
2018-11-14T23:55:30.494Z,25.25
2018-11-14T23:57:59.878Z,26.13
